Time;durP1;ratioP1;P1;durP2;ratioP2;P2;SDS_P1;SDS_P2;PMS_P1;PMS_P2;Temp;Humidity;BMP_temperature;BMP_pressure;BME280_temperature;BME280_humidity;BME280_pressure;Samples;Min_cycle;Max_cycle;Signal;HPM_P1;HPM_P2
2023/09/29 00:00:17;;;;;;;2.70;2.50;;;23.30;48.80;;;;;;4995114;28;20285;-67
2023/09/29 00:02:44;;;;;;;2.50;2.40;;;23.30;48.90;;;;;;4996914;28;20224;-68
2023/09/29 00:05:10;;;;;;;2.57;2.37;;;23.30;48.80;;;;;;4985048;28;20463;-61
2023/09/29 00:07:37;;;;;;;2.87;2.67;;;23.30;49.00;;;;;;4993856;28;20955;-65
2023/09/29 00:10:08;;;;;;;3.10;2.90;;;23.30;49.00;;;;;;4993561;28;20469;-63
2023/09/29 00:12:34;;;;;;;2.50;2.40;;;23.30;49.00;;;;;;4994016;28;20995;-61
2023/09/29 00:15:00;;;;;;;2.93;2.60;;;23.30;49.00;;;;;;4993600;28;20468;-69
2023/09/29 00:17:25;;;;;;;2.40;2.30;;;23.30;48.90;;;;;;4978249;28;20454;-62
2023/09/29 00:19:51;;;;;;;2.57;2.47;;;23.30;49.00;;;;;;4974382;28;20953;-64
2023/09/29 00:22:16;;;;;;;2.60;2.40;;;23.30;49.00;;;;;;4988216;28;20306;-61
2023/09/29 00:24:42;;;;;;;2.43;2.33;;;23.30;49.00;;;;;;4996539;28;20227;-61
2023/09/29 00:27:07;;;;;;;2.50;2.40;;;23.30;49.00;;;;;;4995449;28;20320;-67
2023/09/29 00:29:33;;;;;;;2.53;2.43;;;23.30;49.00;;;;;;4996934;28;20229;-65
2023/09/29 00:31:58;;;;;;;2.53;2.33;;;23.30;49.00;;;;;;4993618;28;20223;-60
2023/09/29 00:34:24;;;;;;;2.40;2.30;;;23.30;49.00;;;;;;4979779;28;20273;-61
2023/09/29 00:36:51;;;;;;;2.37;2.27;;;23.30;49.00;;;;;;4986636;28;20247;-61
2023/09/29 00:39:18;;;;;;;2.43;2.20;;;23.30;49.00;;;;;;4989600;28;20223;-63
2023/09/29 00:41:43;;;;;;;2.30;2.20;;;23.30;49.00;;;;;;4998311;28;20559;-67
2023/09/29 00:44:10;;;;;;;2.53;2.33;;;23.30;49.00;;;;;;4994823;28;20476;-61
2023/09/29 00:46:36;;;;;;;2.50;2.40;;;23.30;48.90;;;;;;4984942;28;20381;-63
2023/09/29 00:49:04;;;;;;;2.80;2.63;;;23.30;49.00;;;;;;4983442;28;20983;-66
2023/09/29 00:51:30;;;;;;;2.13;2.03;;;23.30;49.00;;;;;;4992437;28;20467;-65
2023/09/29 00:53:57;;;;;;;2.30;2.20;;;23.30;49.00;;;;;;4998725;28;20549;-63
2023/09/29 00:56:23;;;;;;;2.33;2.23;;;23.30;49.00;;;;;;4999886;28;20464;-64
2023/09/29 00:58:49;;;;;;;1.97;1.87;;;23.30;49.00;;;;;;4992262;28;20529;-63
2023/09/29 01:01:14;;;;;;;2.33;2.23;;;23.30;49.10;;;;;;4995557;28;21916;-64
2023/09/29 01:03:40;;;;;;;2.47;2.37;;;23.30;49.00;;;;;;4994939;28;20472;-65
2023/09/29 01:06:08;;;;;;;2.30;2.20;;;23.30;49.00;;;;;;4993908;28;20223;-63
2023/09/29 01:08:36;;;;;;;2.43;2.33;;;23.30;49.10;;;;;;4994710;28;20297;-64
2023/09/29 01:11:05;;;;;;;2.30;2.20;;;23.30;49.00;;;;;;5000269;28;20479;-62
2023/09/29 01:13:31;;;;;;;2.60;2.50;;;23.30;49.00;;;;;;4981044;28;20472;-64
2023/09/29 01:15:59;;;;;;;2.70;2.60;;;23.30;49.00;;;;;;4992150;28;20475;-67
2023/09/29 01:18:25;;;;;;;2.00;1.90;;;23.30;49.00;;;;;;4995256;28;20463;-60
2023/09/29 01:20:50;;;;;;;2.47;2.37;;;23.30;49.00;;;;;;4990064;28;20549;-68
2023/09/29 01:23:16;;;;;;;2.33;2.17;;;23.30;49.10;;;;;;4994635;28;20229;-63
2023/09/29 01:25:42;;;;;;;2.33;2.23;;;23.30;49.10;;;;;;4980293;28;21063;-65
2023/09/29 01:28:08;;;;;;;2.03;1.93;;;23.30;49.20;;;;;;4997822;28;20227;-61
2023/09/29 01:30:35;;;;;;;2.20;2.10;;;23.30;49.10;;;;;;4997755;28;20226;-63
2023/09/29 01:33:00;;;;;;;2.53;2.10;;;23.30;49.80;;;;;;4993497;28;20907;-62
2023/09/29 01:35:27;;;;;;;2.57;2.40;;;23.30;49.10;;;;;;4996875;28;21022;-65
2023/09/29 01:37:54;;;;;;;2.60;2.50;;;23.30;49.10;;;;;;4976696;28;20985;-62
2023/09/29 01:40:23;;;;;;;2.20;2.10;;;23.30;49.10;;;;;;4994930;28;20715;-60
2023/09/29 01:42:50;;;;;;;2.30;2.20;;;23.30;49.20;;;;;;4988889;28;20457;-67
2023/09/29 01:45:17;;;;;;;2.60;2.50;;;23.30;49.10;;;;;;4995487;28;20464;-62
2023/09/29 01:47:45;;;;;;;2.00;1.90;;;23.30;49.10;;;;;;4999146;28;20467;-60
2023/09/29 01:50:12;;;;;;;2.37;2.17;;;23.30;49.10;;;;;;4981895;28;20873;-68
2023/09/29 01:52:39;;;;;;;2.10;2.00;;;23.30;49.10;;;;;;4996339;28;21224;-65
2023/09/29 01:55:16;;;;;;;2.23;2.03;;;23.30;49.10;;;;;;4994506;28;20572;-62
2023/09/29 01:57:44;;;;;;;2.33;2.23;;;23.30;49.10;;;;;;5004892;28;20519;-64
2023/09/29 02:00:14;;;;;;;2.53;2.43;;;23.30;49.10;;;;;;5000033;28;20598;-60
2023/09/29 02:02:41;;;;;;;2.47;2.37;;;23.30;49.20;;;;;;4980877;28;20964;-66
2023/09/29 02:05:07;;;;;;;2.57;2.47;;;23.30;49.10;;;;;;4987597;28;20479;-63
2023/09/29 02:07:33;;;;;;;2.70;2.60;;;23.30;49.10;;;;;;4995834;28;20464;-66
2023/09/29 02:09:58;;;;;;;2.37;2.27;;;23.30;49.20;;;;;;4998586;28;20479;-62
2023/09/29 02:12:24;;;;;;;2.50;2.40;;;23.30;49.20;;;;;;5001922;28;20460;-65
2023/09/29 02:14:51;;;;;;;2.00;1.90;;;23.30;49.20;;;;;;4995712;28;20284;-66
2023/09/29 02:17:16;;;;;;;2.27;2.17;;;23.30;49.10;;;;;;5000621;28;20219;-69
2023/09/29 02:19:42;;;;;;;2.20;2.10;;;23.30;49.10;;;;;;4998901;28;21548;-61
2023/09/29 02:22:07;;;;;;;2.40;2.20;;;23.30;49.20;;;;;;4979810;28;21007;-61
2023/09/29 02:24:33;;;;;;;2.17;2.07;;;23.30;49.20;;;;;;4985296;28;20231;-68
2023/09/29 02:26:59;;;;;;;2.60;2.40;;;23.30;49.20;;;;;;5002280;28;20249;-64
2023/09/29 02:29:27;;;;;;;2.83;2.63;;;23.30;49.20;;;;;;5001999;28;20222;-65
2023/09/29 02:31:55;;;;;;;2.70;2.60;;;23.30;49.20;;;;;;5002129;28;20470;-60
2023/09/29 02:34:22;;;;;;;2.20;2.10;;;23.30;49.20;;;;;;4994174;28;20459;-63
2023/09/29 02:36:47;;;;;;;2.33;2.13;;;23.30;49.20;;;;;;5001329;28;20460;-63
2023/09/29 02:39:13;;;;;;;2.50;2.30;;;23.30;49.20;;;;;;4993223;28;20466;-61
2023/09/29 02:41:38;;;;;;;2.30;2.20;;;23.30;49.20;;;;;;4997186;28;20235;-68
2023/09/29 02:44:04;;;;;;;2.30;2.20;;;23.30;49.20;;;;;;4996948;28;20354;-69
2023/09/29 02:46:30;;;;;;;2.30;2.20;;;23.30;49.20;;;;;;4997729;28;21117;-61
2023/09/29 02:48:55;;;;;;;2.33;2.23;;;23.30;49.20;;;;;;5004720;28;20222;-61
2023/09/29 02:51:21;;;;;;;2.30;2.20;;;23.30;49.20;;;;;;5004734;28;20223;-63
2023/09/29 02:53:50;;;;;;;2.30;2.20;;;23.30;49.20;;;;;;5004352;28;20226;-62
2023/09/29 02:56:16;;;;;;;2.40;2.30;;;23.30;49.20;;;;;;4999604;28;21028;-64
2023/09/29 02:58:43;;;;;;;2.23;2.13;;;23.20;49.10;;;;;;4990519;28;20619;-63
2023/09/29 03:01:12;;;;;;;2.50;2.40;;;23.30;49.30;;;;;;5002513;28;20495;-65
2023/09/29 03:03:43;;;;;;;2.40;2.30;;;23.30;49.20;;;;;;4989648;28;20460;-66
2023/09/29 03:06:12;;;;;;;2.13;2.03;;;23.30;49.20;;;;;;4997354;28;20472;-60
2023/09/29 03:08:38;;;;;;;2.50;2.40;;;23.30;49.20;;;;;;4995772;28;20460;-61
2023/09/29 03:11:06;;;;;;;2.30;2.20;;;23.20;49.20;;;;;;4997246;28;20802;-67
2023/09/29 03:13:32;;;;;;;2.47;2.37;;;23.30;49.30;;;;;;4995089;28;20468;-64
2023/09/29 03:15:57;;;;;;;2.50;2.40;;;23.20;49.20;;;;;;4995074;28;20483;-61
2023/09/29 03:18:24;;;;;;;2.30;2.20;;;23.30;49.30;;;;;;4999856;28;21922;-65
2023/09/29 03:20:50;;;;;;;2.47;2.27;;;23.20;49.20;;;;;;5004050;28;20234;-66
2023/09/29 03:23:16;;;;;;;2.47;2.37;;;23.20;49.20;;;;;;4992391;28;20709;-66
2023/09/29 03:25:41;;;;;;;2.47;2.37;;;23.30;49.30;;;;;;5003007;28;21306;-62
2023/09/29 03:28:07;;;;;;;2.20;2.10;;;23.20;49.20;;;;;;4997364;28;20227;-62
2023/09/29 03:30:33;;;;;;;2.20;2.10;;;23.20;49.20;;;;;;4999278;28;20269;-62
2023/09/29 03:32:58;;;;;;;2.50;2.40;;;23.30;49.30;;;;;;4995079;28;20238;-61
2023/09/29 03:35:24;;;;;;;2.50;2.40;;;23.20;49.20;;;;;;4997169;28;20325;-65
2023/09/29 03:37:50;;;;;;;2.43;2.33;;;23.20;49.20;;;;;;4998733;28;20225;-63
2023/09/29 03:40:18;;;;;;;2.60;2.40;;;23.20;49.20;;;;;;4998319;28;20230;-65
2023/09/29 03:42:43;;;;;;;2.90;2.30;;;23.20;49.20;;;;;;4996520;28;20655;-60
2023/09/29 03:45:11;;;;;;;2.30;2.20;;;23.30;49.30;;;;;;5001417;28;20465;-67
2023/09/29 03:47:37;;;;;;;2.50;2.40;;;23.20;49.20;;;;;;4991807;28;20679;-67
2023/09/29 03:50:10;;;;;;;2.57;2.37;;;23.20;49.20;;;;;;4999061;28;20558;-65
2023/09/29 03:52:36;;;;;;;2.47;2.37;;;23.30;49.30;;;;;;4992000;28;23074;-66
2023/09/29 03:55:02;;;;;;;2.80;2.70;;;23.30;49.30;;;;;;4991221;28;20519;-60
2023/09/29 03:57:28;;;;;;;2.70;2.60;;;23.20;49.20;;;;;;4988071;28;21188;-67
2023/09/29 03:59:53;;;;;;;2.73;2.53;;;23.20;49.20;;;;;;4994372;28;20231;-66
2023/09/29 04:02:20;;;;;;;2.33;2.23;;;23.20;49.30;;;;;;4987107;28;20211;-63
2023/09/29 04:04:46;;;;;;;2.70;2.60;;;23.30;49.30;;;;;;4997745;28;20234;-65
2023/09/29 04:07:11;;;;;;;2.27;2.17;;;23.20;49.30;;;;;;5000097;28;20464;-60
2023/09/29 04:09:37;;;;;;;2.60;2.40;;;23.30;49.30;;;;;;4982024;28;20247;-66
2023/09/29 04:12:03;;;;;;;2.70;2.60;;;23.30;49.30;;;;;;4995948;28;20322;-68
2023/09/29 04:14:29;;;;;;;2.60;2.50;;;23.20;49.30;;;;;;4999857;28;20223;-62
2023/09/29 04:16:55;;;;;;;2.57;2.47;;;23.20;49.30;;;;;;4993602;28;20492;-60
2023/09/29 04:19:21;;;;;;;2.97;2.87;;;23.20;49.60;;;;;;5002743;28;20476;-62
2023/09/29 04:21:46;;;;;;;2.40;2.30;;;23.20;49.30;;;;;;4997963;28;20734;-68
2023/09/29 04:24:12;;;;;;;2.80;2.60;;;23.20;49.30;;;;;;4997686;28;20848;-62
2023/09/29 04:26:37;;;;;;;2.67;2.57;;;23.20;49.30;;;;;;4993455;28;20231;-60
2023/09/29 04:29:03;;;;;;;2.60;2.50;;;23.30;49.40;;;;;;4996597;28;21060;-62
2023/09/29 04:31:28;;;;;;;3.43;3.23;;;23.20;49.30;;;;;;4979840;28;20225;-63
2023/09/29 04:33:54;;;;;;;2.70;2.50;;;23.20;49.30;;;;;;4991747;28;20262;-69
2023/09/29 04:36:20;;;;;;;2.90;2.80;;;23.20;49.30;;;;;;4984342;28;20218;-64
2023/09/29 04:38:45;;;;;;;2.70;2.60;;;23.30;49.40;;;;;;4984673;28;20226;-65
2023/09/29 04:41:12;;;;;;;2.87;2.77;;;23.20;49.30;;;;;;4989873;28;20236;-65
2023/09/29 04:43:37;;;;;;;2.57;2.47;;;23.20;49.30;;;;;;4994183;28;20258;-63
2023/09/29 04:46:03;;;;;;;3.23;3.13;;;23.30;49.40;;;;;;4996696;28;21496;-62
2023/09/29 04:48:28;;;;;;;3.37;3.17;;;23.20;49.30;;;;;;4978073;28;20227;-62
2023/09/29 04:50:54;;;;;;;2.40;2.30;;;23.20;49.30;;;;;;5001852;28;20413;-62
2023/09/29 04:53:20;;;;;;;3.20;3.00;;;23.30;49.40;;;;;;5005794;28;20238;-62
2023/09/29 04:55:45;;;;;;;2.77;2.67;;;23.30;49.40;;;;;;4989348;28;20455;-60
2023/09/29 04:58:11;;;;;;;3.10;3.00;;;23.30;50.20;;;;;;4997251;28;20221;-64
2023/09/29 05:00:37;;;;;;;2.80;2.70;;;23.30;49.40;;;;;;4996858;28;20369;-70
2023/09/29 05:03:04;;;;;;;3.17;3.07;;;23.30;49.50;;;;;;4995188;28;20288;-63
2023/09/29 05:05:30;;;;;;;2.97;2.80;;;23.30;49.40;;;;;;5005567;28;20460;-63
2023/09/29 05:07:56;;;;;;;2.60;2.50;;;23.30;49.40;;;;;;5000173;28;20219;-69
2023/09/29 05:10:22;;;;;;;2.73;2.60;;;23.30;49.30;;;;;;5003253;28;20246;-64
2023/09/29 05:12:47;;;;;;;2.93;2.83;;;23.30;49.30;;;;;;4994036;28;20219;-62
2023/09/29 05:15:13;;;;;;;2.80;2.70;;;23.30;49.30;;;;;;4995051;28;21221;-59
2023/09/29 05:17:38;;;;;;;3.13;2.93;;;23.30;49.30;;;;;;5001382;28;20215;-70
2023/09/29 05:20:05;;;;;;;3.40;3.20;;;23.30;49.40;;;;;;4991727;28;21465;-61
2023/09/29 05:22:31;;;;;;;3.00;2.83;;;23.30;49.40;;;;;;4998303;28;20323;-61
2023/09/29 05:25:00;;;;;;;3.43;3.20;;;23.30;49.40;;;;;;4999788;28;20471;-59
2023/09/29 05:27:29;;;;;;;5.83;3.20;;;23.30;49.40;;;;;;4994613;28;20555;-64
2023/09/29 05:29:55;;;;;;;3.27;3.03;;;23.30;49.40;;;;;;4998965;28;20467;-63
2023/09/29 05:32:22;;;;;;;2.90;2.80;;;23.30;49.30;;;;;;5000018;28;20522;-65
2023/09/29 05:34:47;;;;;;;2.80;2.60;;;23.30;49.40;;;;;;5002429;28;20468;-69
2023/09/29 05:37:13;;;;;;;3.10;3.00;;;23.30;49.30;;;;;;5006644;28;20459;-63
2023/09/29 05:39:40;;;;;;;3.23;3.03;;;23.30;49.40;;;;;;4995946;28;20236;-68
2023/09/29 05:42:05;;;;;;;3.20;3.00;;;23.30;49.30;;;;;;4995390;28;20241;-62
2023/09/29 05:44:31;;;;;;;2.90;2.70;;;23.30;49.30;;;;;;4981686;28;20462;-65
2023/09/29 05:46:57;;;;;;;3.37;2.80;;;23.30;49.30;;;;;;4998797;28;20705;-69
2023/09/29 05:49:22;;;;;;;2.70;2.50;;;23.30;49.30;;;;;;4998113;28;20239;-60
2023/09/29 05:51:48;;;;;;;3.77;2.97;;;23.30;49.30;;;;;;4978597;28;20280;-62
2023/09/29 05:54:13;;;;;;;3.30;3.10;;;23.30;49.30;;;;;;4997231;28;20227;-63
2023/09/29 05:56:39;;;;;;;3.60;3.40;;;23.30;49.30;;;;;;4977814;28;20311;-74
2023/09/29 05:59:04;;;;;;;3.20;3.00;;;23.30;49.30;;;;;;4997641;28;20226;-65
2023/09/29 06:01:30;;;;;;;3.10;2.93;;;23.30;49.30;;;;;;4998517;28;20227;-63
2023/09/29 06:03:56;;;;;;;4.00;3.10;;;23.30;49.30;;;;;;5000503;28;21980;-68
2023/09/29 06:06:23;;;;;;;3.70;3.40;;;23.30;49.30;;;;;;4999637;28;20281;-63
2023/09/29 06:08:48;;;;;;;3.30;3.10;;;23.30;49.30;;;;;;5004272;28;20219;-71
2023/09/29 06:11:14;;;;;;;3.33;3.00;;;23.30;49.30;;;;;;4999407;28;20994;-71
2023/09/29 06:13:40;;;;;;;3.30;3.10;;;23.30;49.30;;;;;;4997024;28;20297;-68
2023/09/29 06:16:06;;;;;;;3.43;3.23;;;23.30;49.30;;;;;;5004143;28;20288;-63
2023/09/29 06:18:31;;;;;;;2.97;2.87;;;23.30;49.30;;;;;;4998773;28;20490;-61
2023/09/29 06:20:57;;;;;;;3.17;2.97;;;23.30;49.20;;;;;;4985119;28;20238;-74
2023/09/29 06:23:23;;;;;;;3.43;3.23;;;23.40;49.30;;;;;;5000139;28;20309;-70
2023/09/29 06:25:59;;;;;;;3.30;3.10;;;23.30;49.30;;;;;;4998951;28;21288;-64
2023/09/29 06:28:25;;;;;;;3.10;2.90;;;23.40;49.30;;;;;;4997442;28;20226;-61
2023/09/29 06:30:59;;;;;;;3.00;2.80;;;23.40;49.30;;;;;;4997788;28;20470;-66
2023/09/29 06:33:28;;;;;;;2.70;2.50;;;23.40;49.30;;;;;;4999964;28;20836;-63
2023/09/29 06:35:53;;;;;;;3.00;2.80;;;23.40;49.30;;;;;;5000700;28;20468;-70
2023/09/29 06:38:19;;;;;;;2.87;2.73;;;23.40;49.30;;;;;;4987603;28;20457;-66
2023/09/29 06:40:44;;;;;;;4.73;3.27;;;23.40;49.50;;;;;;4999163;28;20243;-66
2023/09/29 06:43:10;;;;;;;3.27;3.07;;;23.30;49.30;;;;;;4998004;28;20336;-66
2023/09/29 06:45:36;;;;;;;3.80;3.60;;;23.30;49.30;;;;;;4999980;28;20230;-66
2023/09/29 06:48:05;;;;;;;2.80;2.60;;;23.40;49.30;;;;;;5004973;28;20881;-73
2023/09/29 06:50:31;;;;;;;3.47;3.27;;;23.40;49.40;;;;;;5003584;28;20262;-68
2023/09/29 06:52:56;;;;;;;3.43;3.13;;;23.40;49.40;;;;;;5003509;28;20555;-61
2023/09/29 06:55:22;;;;;;;3.40;3.20;;;23.40;49.50;;;;;;5002281;28;20272;-70
2023/09/29 06:57:48;;;;;;;3.20;3.00;;;23.40;49.50;;;;;;4998828;28;20229;-73
2023/09/29 07:00:14;;;;;;;2.67;2.47;;;23.40;49.40;;;;;;5003098;28;20322;-62
2023/09/29 07:02:39;;;;;;;3.80;3.20;;;23.40;49.40;;;;;;5005047;28;20222;-65
2023/09/29 07:05:05;;;;;;;2.80;2.70;;;23.40;49.50;;;;;;5004027;28;20453;-62
2023/09/29 07:07:31;;;;;;;3.30;3.10;;;23.40;49.40;;;;;;4999764;28;20229;-65
2023/09/29 07:09:57;;;;;;;3.10;2.90;;;23.40;49.50;;;;;;4992198;28;20557;-63
2023/09/29 07:12:23;;;;;;;2.70;2.60;;;23.40;49.50;;;;;;4988055;28;20803;-64
2023/09/29 07:14:48;;;;;;;3.47;3.17;;;23.40;49.50;;;;;;5004175;28;20393;-63
2023/09/29 07:17:14;;;;;;;2.93;2.80;;;23.40;49.50;;;;;;5006647;28;20230;-64
2023/09/29 07:19:39;;;;;;;3.03;2.83;;;23.40;49.40;;;;;;5003684;28;20235;-74
2023/09/29 07:22:05;;;;;;;3.10;3.00;;;23.40;49.50;;;;;;5002375;28;20232;-63
2023/09/29 07:24:30;;;;;;;2.87;2.77;;;23.40;49.50;;;;;;4990928;28;20274;-61
2023/09/29 07:26:56;;;;;;;3.10;2.90;;;23.40;49.50;;;;;;5001317;28;21202;-62
2023/09/29 07:29:21;;;;;;;3.23;2.93;;;23.40;49.40;;;;;;5004834;28;20223;-66
2023/09/29 07:31:48;;;;;;;3.13;3.00;;;23.40;49.50;;;;;;4992746;28;20222;-71
2023/09/29 07:34:15;;;;;;;2.83;2.73;;;23.40;49.50;;;;;;5002481;28;20277;-66
2023/09/29 07:36:43;;;;;;;2.60;2.50;;;23.40;49.50;;;;;;5005908;28;20475;-66
2023/09/29 07:39:09;;;;;;;3.10;2.90;;;23.40;49.50;;;;;;5002395;28;20472;-71
2023/09/29 07:41:34;;;;;;;2.70;2.60;;;23.40;49.60;;;;;;5000141;28;20481;-70
2023/09/29 07:44:00;;;;;;;3.13;3.03;;;23.40;49.40;;;;;;4988469;28;20267;-65
2023/09/29 07:46:25;;;;;;;2.73;2.63;;;23.40;49.40;;;;;;5004080;28;20215;-62
2023/09/29 07:48:51;;;;;;;3.47;3.27;;;23.40;49.50;;;;;;5001829;28;20276;-64
2023/09/29 07:51:17;;;;;;;2.93;2.73;;;23.40;49.50;;;;;;5002223;28;20234;-62
2023/09/29 07:53:44;;;;;;;2.70;2.60;;;23.40;49.50;;;;;;5003464;28;20313;-63
2023/09/29 07:56:09;;;;;;;3.03;2.93;;;23.40;49.50;;;;;;4995841;28;20454;-67
2023/09/29 07:58:35;;;;;;;3.20;2.60;;;23.40;49.50;;;;;;4999073;28;20456;-67
2023/09/29 08:01:00;;;;;;;2.87;2.77;;;23.40;49.50;;;;;;5002869;28;20458;-64
2023/09/29 08:03:26;;;;;;;3.53;3.33;;;23.40;49.40;;;;;;4991868;28;20289;-73
2023/09/29 08:05:53;;;;;;;3.13;2.70;;;23.40;49.50;;;;;;4992471;28;20261;-69
2023/09/29 08:08:19;;;;;;;2.90;2.73;;;23.40;49.50;;;;;;4993097;28;20227;-65
2023/09/29 08:10:44;;;;;;;3.20;3.00;;;23.40;49.50;;;;;;5002139;28;20512;-62
2023/09/29 08:13:10;;;;;;;3.00;2.80;;;23.40;49.50;;;;;;5001829;28;20242;-65
2023/09/29 08:15:35;;;;;;;2.77;2.67;;;23.40;49.50;;;;;;4995765;28;21953;-64
2023/09/29 08:18:01;;;;;;;2.70;2.60;;;23.40;49.50;;;;;;5001925;28;20215;-63
2023/09/29 08:20:26;;;;;;;2.60;2.50;;;23.40;49.50;;;;;;5003276;28;20226;-63
2023/09/29 08:22:52;;;;;;;2.80;2.70;;;23.40;49.60;;;;;;4986240;28;20215;-69
2023/09/29 08:25:20;;;;;;;2.77;2.67;;;23.30;49.50;;;;;;4980450;28;20676;-69
2023/09/29 08:27:45;;;;;;;2.60;2.50;;;23.40;49.70;;;;;;4999373;28;20281;-72
2023/09/29 08:30:11;;;;;;;3.60;3.40;;;23.40;49.60;;;;;;4991375;28;20503;-65
2023/09/29 08:32:38;;;;;;;2.90;2.80;;;23.40;49.60;;;;;;5001831;28;20227;-62
2023/09/29 08:35:05;;;;;;;2.70;2.60;;;23.40;49.60;;;;;;5005292;28;20874;-64
2023/09/29 08:37:30;;;;;;;2.80;2.70;;;23.40;49.60;;;;;;5002188;28;20486;-65
2023/09/29 08:39:56;;;;;;;2.93;2.60;;;23.40;49.60;;;;;;5005439;28;23167;-62
2023/09/29 08:42:37;;;;;;;2.53;2.43;;;23.40;49.60;;;;;;5000384;28;20233;-63
2023/09/29 08:45:13;;;;;;;3.30;3.10;;;23.40;49.60;;;;;;5002466;28;20671;-69
2023/09/29 08:47:40;;;;;;;3.00;2.90;;;23.40;49.60;;;;;;4999588;28;20470;-70
2023/09/29 08:50:11;;;;;;;3.10;2.90;;;23.40;49.50;;;;;;4991379;28;20465;-75
2023/09/29 08:52:40;;;;;;;3.07;2.87;;;23.30;49.50;;;;;;5006018;28;20460;-71
2023/09/29 08:55:07;;;;;;;3.00;2.80;;;23.40;49.60;;;;;;4999008;28;21171;-65
2023/09/29 08:57:33;;;;;;;3.10;2.90;;;23.40;49.60;;;;;;5003466;28;21045;-62
2023/09/29 09:00:00;;;;;;;2.73;2.53;;;23.40;49.60;;;;;;4996685;28;20979;-72
2023/09/29 09:02:26;;;;;;;2.57;2.40;;;23.40;49.60;;;;;;4997515;28;20511;-74
2023/09/29 09:04:52;;;;;;;2.77;2.67;;;23.40;49.60;;;;;;4989406;28;20472;-63
2023/09/29 09:07:19;;;;;;;2.77;2.67;;;23.40;49.60;;;;;;5002038;28;20246;-63
2023/09/29 09:09:55;;;;;;;2.33;2.23;;;23.40;49.60;;;;;;5005210;28;20521;-64
2023/09/29 09:12:37;;;;;;;2.77;2.63;;;23.40;49.70;;;;;;5001131;28;20471;-75
2023/09/29 09:15:04;;;;;;;2.90;2.70;;;23.40;49.60;;;;;;5004527;28;21232;-63
2023/09/29 09:17:30;;;;;;;2.40;2.30;;;23.40;49.70;;;;;;5001758;28;20456;-62
2023/09/29 09:19:56;;;;;;;3.00;2.80;;;23.40;49.70;;;;;;5004501;28;20567;-63
2023/09/29 09:22:25;;;;;;;2.40;2.30;;;23.40;49.70;;;;;;4997981;28;20532;-67
2023/09/29 09:25:00;;;;;;;2.93;2.83;;;23.40;49.70;;;;;;4999668;28;20314;-66
2023/09/29 09:27:35;;;;;;;2.53;2.33;;;23.40;49.60;;;;;;5005027;28;20554;-63
2023/09/29 09:30:01;;;;;;;2.57;2.47;;;23.40;49.70;;;;;;4995508;28;20898;-61
2023/09/29 09:32:27;;;;;;;2.80;2.60;;;23.40;49.60;;;;;;5001430;28;20475;-61
2023/09/29 09:34:53;;;;;;;2.70;2.40;;;23.40;49.70;;;;;;5003189;28;20260;-69
2023/09/29 09:37:28;;;;;;;4.70;2.43;;;23.40;49.70;;;;;;5001998;28;20460;-66
2023/09/29 09:39:59;;;;;;;2.57;2.47;;;23.40;49.60;;;;;;5003374;28;20226;-67
2023/09/29 09:42:27;;;;;;;2.23;2.13;;;23.40;49.70;;;;;;4998448;28;20477;-66
2023/09/29 09:44:57;;;;;;;2.80;2.70;;;23.40;49.60;;;;;;5003009;28;20469;-64
2023/09/29 09:47:25;;;;;;;2.10;2.00;;;23.40;49.70;;;;;;5002788;28;20463;-63
2023/09/29 09:49:55;;;;;;;2.40;2.30;;;23.40;49.60;;;;;;5002555;28;20458;-64
2023/09/29 09:52:28;;;;;;;2.13;2.03;;;23.40;49.70;;;;;;5000842;28;21085;-66
2023/09/29 09:54:56;;;;;;;2.23;2.13;;;23.40;49.60;;;;;;5001370;28;20924;-68
2023/09/29 09:57:34;;;;;;;2.30;2.10;;;23.40;49.70;;;;;;5001410;28;20806;-65
2023/09/29 10:00:10;;;;;;;2.43;2.33;;;23.40;49.60;;;;;;4996636;28;20551;-71
2023/09/29 10:02:46;;;;;;;2.53;2.33;;;23.40;49.70;;;;;;4999734;28;20510;-70
2023/09/29 10:05:23;;;;;;;2.40;2.30;;;23.40;49.60;;;;;;4999453;28;20486;-70
2023/09/29 10:07:50;;;;;;;2.50;2.40;;;23.40;49.60;;;;;;5000990;28;20468;-72
2023/09/29 10:10:24;;;;;;;2.50;2.40;;;23.40;49.70;;;;;;5002533;28;20487;-68
2023/09/29 10:12:55;;;;;;;2.40;2.30;;;23.40;49.60;;;;;;4989969;28;20478;-63
2023/09/29 10:15:21;;;;;;;2.47;2.20;;;23.40;49.60;;;;;;5001048;28;20503;-62
2023/09/29 10:17:47;;;;;;;2.60;2.40;;;23.40;49.60;;;;;;5003546;28;20546;-69
2023/09/29 10:20:24;;;;;;;2.30;2.20;;;23.40;49.70;;;;;;5006836;28;20463;-61
2023/09/29 10:22:54;;;;;;;2.33;2.23;;;23.40;49.60;;;;;;4998607;28;20475;-62
2023/09/29 10:25:24;;;;;;;2.40;2.20;;;23.40;49.60;;;;;;5002906;28;20462;-71
2023/09/29 10:27:59;;;;;;;2.40;2.30;;;23.40;49.70;;;;;;5005441;28;22441;-65
2023/09/29 10:30:26;;;;;;;2.40;2.30;;;23.40;49.70;;;;;;5002869;28;20487;-66
2023/09/29 10:33:05;;;;;;;2.10;2.00;;;23.40;49.60;;;;;;5000197;28;20534;-64
2023/09/29 10:35:31;;;;;;;2.50;2.40;;;23.40;49.60;;;;;;5007286;28;20471;-73
2023/09/29 10:37:58;;;;;;;2.30;2.20;;;23.40;49.70;;;;;;5003020;28;20467;-66
2023/09/29 10:40:28;;;;;;;2.30;2.07;;;23.40;49.60;;;;;;5003638;28;20692;-66
2023/09/29 10:42:56;;;;;;;2.20;2.10;;;23.40;49.60;;;;;;5004376;28;21322;-72
2023/09/29 10:45:31;;;;;;;2.03;1.93;;;23.40;49.60;;;;;;4999732;28;20584;-64
2023/09/29 10:48:01;;;;;;;2.30;2.20;;;23.40;49.60;;;;;;4988491;28;20496;-62
2023/09/29 10:50:26;;;;;;;2.03;1.93;;;23.40;49.60;;;;;;5004304;28;20823;-62
2023/09/29 10:52:52;;;;;;;2.13;2.03;;;23.40;49.60;;;;;;5001604;28;20463;-70
2023/09/29 10:55:18;;;;;;;2.20;2.10;;;23.40;49.60;;;;;;5007441;28;20210;-68
2023/09/29 10:57:45;;;;;;;2.27;2.17;;;23.40;49.60;;;;;;5007718;28;20243;-69
2023/09/29 11:00:11;;;;;;;2.20;2.10;;;23.40;49.60;;;;;;5004998;28;20233;-65
2023/09/29 11:02:37;;;;;;;2.10;2.00;;;23.40;49.60;;;;;;5005551;28;20482;-72
2023/09/29 11:05:07;;;;;;;2.30;2.20;;;23.40;49.60;;;;;;5005068;28;20867;-71
2023/09/29 11:07:51;;;;;;;2.03;1.93;;;23.40;49.60;;;;;;5005027;28;21098;-64
2023/09/29 11:10:20;;;;;;;1.93;1.83;;;23.50;49.60;;;;;;5002054;28;20468;-64
2023/09/29 11:12:49;;;;;;;1.80;1.70;;;23.40;49.60;;;;;;5003507;28;20463;-65
2023/09/29 11:15:17;;;;;;;2.20;2.00;;;23.40;49.60;;;;;;5000692;28;21055;-61
2023/09/29 11:17:49;;;;;;;2.20;2.10;;;23.40;49.60;;;;;;4985744;28;20549;-61
2023/09/29 11:20:16;;;;;;;2.47;2.27;;;23.50;49.70;;;;;;5004910;28;20467;-62
2023/09/29 11:22:45;;;;;;;2.17;2.07;;;23.50;49.70;;;;;;5008300;28;20567;-66
2023/09/29 11:25:19;;;;;;;2.27;2.17;;;23.50;49.70;;;;;;5000111;28;20563;-64
2023/09/29 11:27:50;;;;;;;2.30;2.20;;;23.50;49.70;;;;;;4997105;28;20504;-66
2023/09/29 11:30:15;;;;;;;2.03;1.90;;;23.50;49.70;;;;;;4994741;28;21054;-60
2023/09/29 11:32:41;;;;;;;2.50;2.30;;;23.40;49.60;;;;;;5003070;28;20511;-64
2023/09/29 11:35:13;;;;;;;2.20;2.10;;;23.50;49.70;;;;;;5003179;28;20230;-71
2023/09/29 11:37:39;;;;;;;1.90;1.80;;;23.50;49.70;;;;;;5002080;28;20759;-65
2023/09/29 11:40:11;;;;;;;2.40;2.30;;;23.50;49.70;;;;;;4979955;28;20538;-69
2023/09/29 11:42:40;;;;;;;1.70;1.60;;;23.50;49.70;;;;;;4992365;28;20504;-62
2023/09/29 11:45:10;;;;;;;2.20;2.10;;;23.50;49.70;;;;;;5002549;28;20466;-70
2023/09/29 11:47:39;;;;;;;2.30;2.20;;;23.50;49.70;;;;;;5004100;28;20480;-60
2023/09/29 11:50:08;;;;;;;1.80;1.70;;;23.50;49.70;;;;;;5000821;28;20460;-61
2023/09/29 11:52:34;;;;;;;2.50;2.00;;;23.50;49.70;;;;;;4985906;28;20476;-61
2023/09/29 11:54:59;;;;;;;2.20;2.10;;;23.50;49.70;;;;;;4993107;28;20463;-62
2023/09/29 11:57:25;;;;;;;2.63;2.43;;;23.50;49.70;;;;;;4998679;28;20454;-67
2023/09/29 11:59:50;;;;;;;2.00;1.90;;;23.50;49.70;;;;;;4999273;28;20230;-64
2023/09/29 12:02:16;;;;;;;2.20;2.10;;;23.50;49.70;;;;;;4998539;28;20281;-67
2023/09/29 12:04:42;;;;;;;1.97;1.80;;;23.50;49.70;;;;;;4984687;28;20224;-60
2023/09/29 12:07:07;;;;;;;2.47;2.37;;;23.50;49.70;;;;;;4995872;28;20222;-67
2023/09/29 12:09:33;;;;;;;2.30;2.20;;;23.50;49.70;;;;;;5004803;28;20218;-70
2023/09/29 12:12:01;;;;;;;2.20;2.10;;;23.50;49.70;;;;;;5004190;28;20229;-66
2023/09/29 12:14:27;;;;;;;2.47;2.27;;;23.50;49.70;;;;;;5002915;28;20233;-60
2023/09/29 12:16:53;;;;;;;2.27;2.10;;;23.50;49.70;;;;;;5001492;28;20468;-61
2023/09/29 12:19:22;;;;;;;2.70;2.47;;;23.50;49.70;;;;;;5002592;28;20254;-65
2023/09/29 12:21:47;;;;;;;2.27;2.07;;;23.50;50.00;;;;;;5001839;28;20487;-69
2023/09/29 12:24:14;;;;;;;2.27;2.17;;;23.50;49.80;;;;;;5004700;28;20493;-60
2023/09/29 12:26:46;;;;;;;2.40;2.20;;;23.50;49.70;;;;;;5006775;28;20262;-62
2023/09/29 12:29:12;;;;;;;1.80;1.70;;;23.50;49.70;;;;;;5000739;28;20472;-65
2023/09/29 12:31:37;;;;;;;2.00;1.90;;;23.50;49.70;;;;;;5005761;28;20459;-65
2023/09/29 12:34:04;;;;;;;2.37;2.20;;;23.50;49.70;;;;;;4999203;28;20464;-65
2023/09/29 12:36:30;;;;;;;2.10;2.00;;;23.50;49.70;;;;;;5003297;28;20218;-61
2023/09/29 12:38:55;;;;;;;2.50;2.40;;;23.50;49.70;;;;;;4992023;28;20869;-66
2023/09/29 12:41:22;;;;;;;1.93;1.83;;;23.50;49.70;;;;;;5001804;28;20270;-63
2023/09/29 12:43:47;;;;;;;2.20;2.10;;;23.50;49.70;;;;;;5001442;28;20310;-72
2023/09/29 12:46:13;;;;;;;2.60;2.07;;;23.50;49.70;;;;;;5004633;28;20502;-66